Time;durP1;ratioP1;P1;durP2;ratioP2;P2;SDS_P1;SDS_P2;PMS_P1;PMS_P2;Temp;Humidity;BMP_temperature;BMP_pressure;BME280_temperature;BME280_humidity;BME280_pressure;Samples;Min_cycle;Max_cycle;Signal;HPM_P1;HPM_P2
2021/08/27 00:01:35;;;;;;;6.20;2.63;;;;;;;17.84;100.00;94557.94;5084052;28;20102;-69
2021/08/27 00:04:02;;;;;;;5.38;3.45;;;;;;;17.92;100.00;94554.72;5095597;28;20051;-70
2021/08/27 00:06:29;;;;;;;4.18;2.63;;;;;;;17.95;100.00;94547.03;5090426;28;20383;-69
2021/08/27 00:08:56;;;;;;;3.88;2.45;;;;;;;17.99;100.00;94552.53;5095088;28;20760;-69
2021/08/27 00:11:23;;;;;;;3.13;2.03;;;;;;;18.02;100.00;94548.53;5084795;28;20048;-69
2021/08/27 00:13:50;;;;;;;3.40;2.47;;;;;;;17.96;100.00;94535.41;5082366;28;20046;-69
2021/08/27 00:16:16;;;;;;;3.85;2.63;;;;;;;17.96;100.00;94547.81;5089926;28;20048;-70
2021/08/27 00:18:43;;;;;;;3.22;2.33;;;;;;;17.93;100.00;94545.72;5081189;28;20101;-69
2021/08/27 00:21:10;;;;;;;3.45;2.20;;;;;;;17.87;100.00;94552.94;5081306;28;20048;-69
2021/08/27 00:23:37;;;;;;;2.60;1.73;;;;;;;17.63;100.00;94542.41;5084516;28;20051;-69
2021/08/27 00:26:04;;;;;;;4.22;2.22;;;;;;;17.70;100.00;94552.56;5092692;28;20428;-69
2021/08/27 00:28:31;;;;;;;5.03;2.42;;;;;;;17.74;100.00;94549.09;5072354;28;20094;-69
2021/08/27 00:30:58;;;;;;;4.63;2.60;;;;;;;17.82;100.00;94544.28;5071970;28;20063;-69
2021/08/27 00:33:25;;;;;;;4.05;2.75;;;;;;;17.82;100.00;94549.53;5067479;28;20111;-69
2021/08/27 00:35:53;;;;;;;3.78;3.05;;;;;;;17.93;100.00;94566.81;5077364;28;20043;-70
2021/08/27 00:38:21;;;;;;;2.58;2.10;;;;;;;17.94;100.00;94557.84;5076230;28;20529;-70
2021/08/27 00:40:48;;;;;;;2.75;1.83;;;;;;;17.95;100.00;94560.22;5082539;28;20421;-70
2021/08/27 00:43:15;;;;;;;2.63;2.20;;;;;;;17.94;100.00;94549.94;5074219;28;20114;-70
2021/08/27 00:45:44;;;;;;;2.88;2.05;;;;;;;17.92;100.00;94544.97;5082769;28;20038;-69
2021/08/27 00:48:15;;;;;;;2.95;1.80;;;;;;;17.97;100.00;94546.75;5074231;28;20525;-69
2021/08/27 00:50:45;;;;;;;3.78;1.88;;;;;;;17.83;100.00;94535.31;5068102;28;20044;-69
2021/08/27 00:53:13;;;;;;;4.20;2.15;;;;;;;17.55;100.00;94546.44;5068696;28;20571;-69
2021/08/27 00:55:40;;;;;;;2.60;1.85;;;;;;;17.41;100.00;94545.53;5071399;28;20036;-70
2021/08/27 00:58:07;;;;;;;4.25;2.95;;;;;;;17.27;100.00;94545.44;5077063;28;20058;-70
2021/08/27 01:00:34;;;;;;;3.05;2.38;;;;;;;17.18;100.00;94536.59;5081381;28;20047;-70
2021/08/27 01:03:02;;;;;;;3.28;2.10;;;;;;;17.21;100.00;94541.28;5075968;28;20475;-69
2021/08/27 01:05:33;;;;;;;4.03;2.85;;;;;;;17.09;100.00;94543.53;5076274;28;20045;-70
2021/08/27 01:08:14;;;;;;;4.30;2.83;;;;;;;17.03;100.00;94547.25;5076983;28;20048;-70
2021/08/27 01:10:46;;;;;;;3.88;2.08;;;;;;;17.02;100.00;94553.59;5073811;28;20497;-70
2021/08/27 01:13:29;;;;;;;3.60;2.40;;;;;;;17.13;100.00;94557.69;5073764;28;20040;-69
2021/08/27 01:16:16;;;;;;;5.72;3.05;;;;;;;17.17;100.00;94566.59;5072753;28;20074;-70
2021/08/27 01:18:56;;;;;;;3.95;3.17;;;;;;;17.29;100.00;94560.97;5069721;28;20051;-72
2021/08/27 01:21:34;;;;;;;3.50;2.13;;;;;;;17.34;100.00;94545.88;5073597;28;20058;-72
2021/08/27 01:24:04;;;;;;;4.35;2.25;;;;;;;17.34;100.00;94548.53;5082470;28;20036;-76
2021/08/27 01:26:39;;;;;;;3.10;2.10;;;;;;;17.14;100.00;94551.34;5082242;28;20101;-75
2021/08/27 01:29:08;;;;;;;3.88;2.33;;;;;;;17.03;100.00;94571.72;5077210;28;20040;-75
2021/08/27 01:31:51;;;;;;;5.20;2.83;;;;;;;17.02;100.00;94570.16;5079131;28;20117;-76
2021/08/27 01:34:21;;;;;;;3.33;1.83;;;;;;;17.11;100.00;94562.44;5081474;28;20045;-75
2021/08/27 01:36:50;;;;;;;6.97;3.53;;;;;;;16.97;100.00;94536.78;5078741;28;20036;-77
2021/08/27 01:39:19;;;;;;;4.82;2.20;;;;;;;16.98;100.00;94548.09;5078458;28;20048;-75
2021/08/27 01:41:51;;;;;;;4.05;2.15;;;;;;;16.90;100.00;94557.38;5077467;28;20049;-77
2021/08/27 01:44:21;;;;;;;3.78;3.00;;;;;;;16.90;100.00;94557.38;5076432;28;20434;-79
2021/08/27 01:46:50;;;;;;;5.95;4.00;;;;;;;16.97;100.00;94563.09;5074675;28;20508;-76
2021/08/27 01:49:18;;;;;;;5.05;3.17;;;;;;;16.97;100.00;94552.56;5074627;28;20071;-75
2021/08/27 01:51:47;;;;;;;4.65;3.55;;;;;;;17.12;100.00;94564.00;5077514;28;20460;-75
2021/08/27 01:54:15;;;;;;;5.15;2.67;;;;;;;17.24;100.00;94572.31;5083721;28;20071;-75
2021/08/27 01:56:43;;;;;;;6.20;4.30;;;;;;;17.35;100.00;94567.72;5080482;28;20493;-75
2021/08/27 01:59:10;;;;;;;4.60;3.08;;;;;;;17.43;100.00;94569.75;5077020;28;20490;-79
2021/08/27 02:01:38;;;;;;;4.78;3.42;;;;;;;17.45;100.00;94572.09;5078389;28;20463;-77
2021/08/27 02:04:10;;;;;;;4.38;3.15;;;;;;;17.41;100.00;94584.25;5077316;28;20097;-75
2021/08/27 02:06:38;;;;;;;4.95;3.35;;;;;;;17.36;100.00;94575.34;5077976;28;20441;-77
2021/08/27 02:09:06;;;;;;;5.07;2.50;;;;;;;17.42;100.00;94577.94;5078510;28;20036;-78
2021/08/27 02:11:33;;;;;;;5.05;2.88;;;;;;;17.49;100.00;94567.84;5074152;28;20067;-76
2021/08/27 02:14:01;;;;;;;5.40;3.58;;;;;;;17.53;100.00;94563.59;5072226;28;20059;-76
2021/08/27 02:16:28;;;;;;;4.75;2.70;;;;;;;17.17;100.00;94556.84;5071104;28;20071;-76
2021/08/27 02:18:56;;;;;;;4.57;3.28;;;;;;;17.11;100.00;94554.56;5079298;28;20051;-76
2021/08/27 02:21:27;;;;;;;6.55;3.65;;;;;;;17.17;100.00;94553.44;5080524;28;20528;-75
2021/08/27 02:23:57;;;;;;;4.93;3.42;;;;;;;17.20;100.00;94560.78;5076554;28;20494;-75
2021/08/27 02:26:24;;;;;;;4.75;2.80;;;;;;;17.12;100.00;94558.75;5076621;28;20048;-75
2021/08/27 02:28:55;;;;;;;5.20;3.78;;;;;;;16.85;100.00;94554.78;5076932;28;20048;-76
2021/08/27 02:31:25;;;;;;;3.85;3.13;;;;;;;16.87;100.00;94557.13;5080081;28;20044;-75
2021/08/27 02:33:53;;;;;;;5.93;3.50;;;;;;;16.87;100.00;94565.81;5075717;28;20048;-76
2021/08/27 02:36:21;;;;;;;4.32;2.97;;;;;;;16.87;100.00;94565.81;5078456;28;20089;-77
2021/08/27 02:38:50;;;;;;;5.35;2.58;;;;;;;16.95;100.00;94565.22;5072541;28;20043;-78
2021/08/27 02:41:17;;;;;;;4.88;2.45;;;;;;;16.97;100.00;94544.66;5076316;28;20060;-75
2021/08/27 02:43:44;;;;;;;4.68;3.33;;;;;;;16.95;100.00;94544.16;5073803;28;20044;-77
2021/08/27 02:46:11;;;;;;;5.45;3.08;;;;;;;16.94;100.00;94536.56;5070802;28;20056;-76
2021/08/27 02:48:38;;;;;;;6.93;3.47;;;;;;;16.90;100.00;94536.31;5073982;28;20078;-74
2021/08/27 02:51:13;;;;;;;5.43;4.07;;;;;;;16.85;100.00;94533.72;5076288;28;20524;-73
2021/08/27 02:53:45;;;;;;;5.43;2.97;;;;;;;17.03;100.00;94545.41;5080526;28;20036;-75
2021/08/27 02:56:24;;;;;;;4.93;3.55;;;;;;;17.23;100.00;94557.56;5070592;28;20434;-75
2021/08/27 02:58:53;;;;;;;3.78;2.58;;;;;;;17.20;100.00;94550.25;5078799;28;20106;-75
2021/08/27 03:01:35;;;;;;;3.50;2.90;;;;;;;17.07;100.00;94553.53;5077930;28;20043;-76
2021/08/27 03:04:17;;;;;;;4.53;2.88;;;;;;;17.00;100.00;94556.50;5078434;28;20049;-75
2021/08/27 03:06:49;;;;;;;6.78;4.03;;;;;;;16.97;100.00;94531.53;5071594;28;20097;-74
2021/08/27 03:09:17;;;;;;;6.30;4.13;;;;;;;17.15;100.00;94551.06;5076269;28;20499;-74
2021/08/27 03:11:58;;;;;;;5.10;3.40;;;;;;;17.16;100.00;94554.47;5071617;28;20051;-73
2021/08/27 03:14:35;;;;;;;8.27;4.07;;;;;;;17.26;100.00;94564.13;5077216;28;20047;-73
2021/08/27 03:17:07;;;;;;;5.15;3.45;;;;;;;17.37;100.00;94555.84;5075001;28;20540;-74
2021/08/27 03:20:03;;;;;;;3.35;2.65;;;;;;;17.48;100.00;94550.47;5071541;28;20055;-73
2021/08/27 03:22:37;;;;;;;3.90;2.80;;;;;;;17.51;100.00;94549.91;5057944;28;20052;-72
2021/08/27 03:25:07;;;;;;;5.97;3.55;;;;;;;17.60;100.00;94553.50;5078638;28;20051;-72
2021/08/27 03:27:44;;;;;;;5.07;2.60;;;;;;;17.58;100.00;94556.41;5067954;28;20063;-72
2021/08/27 03:30:19;;;;;;;5.03;2.88;;;;;;;17.46;100.00;94552.59;5072025;28;20036;-73
2021/08/27 03:32:50;;;;;;;6.63;3.85;;;;;;;17.56;100.00;94552.50;5070615;28;20044;-76
2021/08/27 03:35:19;;;;;;;4.63;3.38;;;;;;;17.62;100.00;94546.09;5075969;28;20044;-75
2021/08/27 03:37:51;;;;;;;4.38;3.03;;;;;;;17.60;100.00;94545.59;5074540;28;20040;-74
2021/08/27 03:40:19;;;;;;;4.03;2.88;;;;;;;17.43;100.00;94547.88;5077578;28;20113;-73
2021/08/27 03:42:47;;;;;;;3.58;2.20;;;;;;;17.37;100.00;94549.78;5080183;28;20094;-73
2021/08/27 03:45:18;;;;;;;4.88;3.45;;;;;;;17.29;100.00;94564.38;5082827;28;20044;-73
2021/08/27 03:47:45;;;;;;;3.97;2.83;;;;;;;17.28;100.00;94557.53;5066280;28;20040;-73
2021/08/27 03:50:13;;;;;;;4.22;2.65;;;;;;;17.43;100.00;94547.88;5085165;28;20117;-72
2021/08/27 03:52:42;;;;;;;2.72;2.03;;;;;;;17.54;100.00;94554.63;5073793;28;20032;-72
2021/08/27 03:55:12;;;;;;;5.38;3.35;;;;;;;17.50;100.00;94538.59;5075856;28;20052;-72
2021/08/27 03:57:41;;;;;;;3.70;2.20;;;;;;;17.38;100.00;94552.16;5071881;28;20048;-72
2021/08/27 04:00:09;;;;;;;4.57;2.70;;;;;;;17.21;100.00;94546.53;5075301;28;20044;-72
2021/08/27 04:02:39;;;;;;;5.35;2.58;;;;;;;17.28;100.00;94557.53;5075981;28;20456;-72
2021/08/27 04:05:13;;;;;;;3.75;2.25;;;;;;;17.31;100.00;94561.47;5072556;28;20040;-72
2021/08/27 04:07:41;;;;;;;5.20;3.15;;;;;;;17.26;100.00;94570.19;5080588;28;20040;-72
2021/08/27 04:10:09;;;;;;;4.32;2.90;;;;;;;17.17;100.00;94562.09;5079057;28;20044;-72
2021/08/27 04:12:39;;;;;;;4.93;3.20;;;;;;;17.25;100.00;94559.94;5077624;28;20044;-75
2021/08/27 04:15:08;;;;;;;4.00;3.22;;;;;;;17.20;100.00;94551.03;5081495;28;20039;-75
2021/08/27 04:17:35;;;;;;;6.28;3.47;;;;;;;17.32;100.00;94555.91;5076605;28;20045;-75
2021/08/27 04:20:03;;;;;;;3.35;2.30;;;;;;;17.42;100.00;94564.78;5084048;28;20138;-74
2021/08/27 04:22:30;;;;;;;4.25;2.53;;;;;;;17.37;100.00;94571.63;5079541;28;20036;-73
2021/08/27 04:24:57;;;;;;;4.38;2.85;;;;;;;17.34;100.00;94572.22;5080303;28;20045;-74
2021/08/27 04:27:24;;;;;;;4.40;3.05;;;;;;;17.31;100.00;94561.47;5076904;28;20425;-75
2021/08/27 04:29:51;;;;;;;3.67;2.53;;;;;;;17.21;100.00;94562.34;5075994;28;20040;-71
2021/08/27 04:32:18;;;;;;;3.67;2.45;;;;;;;17.09;100.00;94554.06;5077945;28;20056;-74
2021/08/27 04:34:45;;;;;;;4.85;3.50;;;;;;;16.94;100.00;94547.88;5080332;28;20073;-74
2021/08/27 04:37:12;;;;;;;4.28;2.80;;;;;;;17.04;100.00;94548.84;5077154;28;20048;-73
2021/08/27 04:39:39;;;;;;;4.85;3.70;;;;;;;17.17;100.00;94556.06;5074744;28;20437;-74
2021/08/27 04:42:06;;;;;;;5.43;3.70;;;;;;;17.25;100.00;94560.72;5073139;28;20426;-73
2021/08/27 04:44:33;;;;;;;5.15;3.05;;;;;;;17.18;100.00;94568.16;5073617;28;20047;-72
2021/08/27 04:47:00;;;;;;;5.60;3.83;;;;;;;17.10;100.00;94553.75;5075635;28;20028;-71
2021/08/27 04:49:26;;;;;;;7.65;3.35;;;;;;;17.15;100.00;94548.44;5071998;28;20131;-71
2021/08/27 04:51:53;;;;;;;5.53;3.47;;;;;;;17.24;100.00;94567.03;5074283;28;20177;-71
2021/08/27 04:54:20;;;;;;;5.13;3.45;;;;;;;17.17;100.00;94561.31;5081892;28;20052;-71
2021/08/27 04:56:47;;;;;;;6.47;4.18;;;;;;;17.21;100.00;94564.97;5072486;28;20039;-71
2021/08/27 04:59:14;;;;;;;6.57;3.42;;;;;;;17.32;100.00;94561.19;5071389;28;20075;-71
2021/08/27 05:01:40;;;;;;;6.35;4.00;;;;;;;17.50;100.00;94569.41;5083171;28;20036;-70
2021/08/27 05:04:08;;;;;;;6.22;4.15;;;;;;;17.50;100.00;94579.94;5077475;28;20060;-70
2021/08/27 05:06:34;;;;;;;5.00;3.40;;;;;;;17.38;100.00;94583.75;5078333;28;20493;-70
2021/08/27 05:09:01;;;;;;;6.28;4.57;;;;;;;17.39;100.00;94579.25;5076753;28;20044;-70
2021/08/27 05:11:28;;;;;;;5.05;3.35;;;;;;;17.53;100.00;94582.00;5072491;28;20391;-70
2021/08/27 05:13:55;;;;;;;6.13;3.90;;;;;;;17.66;100.00;94578.69;5075115;28;20048;-70
2021/08/27 05:16:22;;;;;;;6.78;4.72;;;;;;;17.78;100.00;94578.31;5072661;28;20060;-70
2021/08/27 05:18:49;;;;;;;5.35;3.50;;;;;;;17.78;100.00;94565.91;5074618;28;20059;-71
2021/08/27 05:21:16;;;;;;;7.05;3.83;;;;;;;17.89;100.00;94577.13;5081621;28;20036;-70
2021/08/27 05:23:43;;;;;;;5.43;3.15;;;;;;;17.94;100.00;94584.97;5080678;28;20040;-70
2021/08/27 05:26:10;;;;;;;7.35;4.28;;;;;;;18.06;100.00;94576.66;5072301;28;20036;-70
2021/08/27 05:28:37;;;;;;;5.38;2.90;;;;;;;18.21;100.00;94582.81;5073844;28;20709;-70
2021/08/27 05:31:04;;;;;;;4.35;2.95;;;;;;;18.27;100.00;94576.38;5075144;28;20105;-70
2021/08/27 05:33:50;;;;;;;6.35;3.58;;;;;;;18.41;100.00;94571.97;5077402;28;20056;-70
2021/08/27 05:36:16;;;;;;;4.40;2.53;;;;;;;18.45;100.00;94578.22;5073034;28;20051;-70
2021/08/27 05:38:43;;;;;;;3.20;2.90;;;;;;;18.54;100.00;94573.84;5075896;28;20062;-70
2021/08/27 05:41:10;;;;;;;4.03;2.67;;;;;;;18.68;100.00;94575.78;5079144;28;20040;-70
2021/08/27 05:43:37;;;;;;;3.67;2.17;;;;;;;18.72;100.00;94582.03;5075165;28;20032;-70
2021/08/27 05:46:04;;;;;;;4.82;3.53;;;;;;;18.79;100.00;94579.81;5070996;28;20055;-70
2021/08/27 05:48:31;;;;;;;4.47;2.50;;;;;;;18.61;100.00;94570.09;5079283;28;20055;-70
2021/08/27 05:50:58;;;;;;;2.15;1.55;;;;;;;18.68;100.00;94581.06;5078536;28;20048;-70
2021/08/27 05:53:25;;;;;;;3.50;2.88;;;;;;;18.76;100.00;94577.75;5074573;28;20067;-70
2021/08/27 05:55:51;;;;;;;1.92;1.35;;;;;;;18.73;100.00;94567.78;5078959;28;20040;-70
2021/08/27 05:58:18;;;;;;;3.33;1.90;;;;;;;18.72;100.00;94566.22;5076559;28;20036;-70
2021/08/27 06:00:45;;;;;;;3.70;2.38;;;;;;;18.89;100.00;94577.06;5072795;28;20044;-70
2021/08/27 06:03:12;;;;;;;2.15;1.35;;;;;;;18.98;100.00;94584.28;5078140;28;20124;-70
2021/08/27 06:05:39;;;;;;;2.72;2.13;;;;;;;19.05;100.00;94584.69;5076573;28;20041;-70
2021/08/27 06:08:06;;;;;;;3.30;2.22;;;;;;;19.00;100.00;94567.09;5079362;28;20036;-70
2021/08/27 06:10:33;;;;;;;3.45;2.50;;;;;;;19.07;100.00;94577.31;5075617;28;20505;-70
2021/08/27 06:13:00;;;;;;;2.80;2.00;;;;;;;19.13;100.00;94581.41;5080944;28;20073;-70
2021/08/27 06:15:26;;;;;;;3.03;1.95;;;;;;;19.19;100.00;94585.50;5072302;28;20052;-70
2021/08/27 06:17:53;;;;;;;2.35;1.77;;;;;;;19.32;100.00;94588.47;5078511;28;20044;-69
2021/08/27 06:20:20;;;;;;;3.67;2.47;;;;;;;19.33;100.00;94582.13;5079784;28;20535;-70
2021/08/27 06:22:47;;;;;;;2.92;1.95;;;;;;;19.46;100.00;94586.63;5075508;28;20071;-70
2021/08/27 06:25:14;;;;;;;2.83;1.95;;;;;;;19.53;100.00;94594.94;5076546;28;20577;-69
2021/08/27 06:27:41;;;;;;;2.47;1.42;;;;;;;19.51;100.00;94570.69;5079163;28;20036;-70
2021/08/27 06:30:08;;;;;;;2.85;1.98;;;;;;;19.68;100.00;94586.75;5082264;28;20044;-68
2021/08/27 06:32:35;;;;;;;2.83;1.88;;;;;;;19.87;100.00;94593.81;5083254;28;20044;-68
2021/08/27 06:35:06;;;;;;;3.45;2.63;;;;;;;19.82;100.00;94591.25;5082066;28;20040;-68
2021/08/27 06:40:18;;;;;;;2.60;1.60;;;;;;;19.94;100.00;94588.13;5073663;28;20056;-68
2021/08/27 06:42:44;;;;;;;3.25;2.25;;;;;;;20.15;100.00;94588.47;5078016;28;20508;-68
2021/08/27 06:45:12;;;;;;;2.78;2.13;;;;;;;20.10;100.00;94591.25;5077562;28;20045;-68
2021/08/27 06:47:38;;;;;;;3.05;1.85;;;;;;;19.97;100.00;94593.59;5074547;28;20541;-68
2021/08/27 06:50:06;;;;;;;5.38;1.98;;;;;;;20.17;100.00;94600.31;5078794;28;20044;-68
2021/08/27 06:52:33;;;;;;;4.93;2.72;;;;;;;20.15;100.00;94604.31;5072588;28;20058;-68
2021/08/27 08:27:47;;;;;;;5.68;4.03;;;;;;;21.91;96.76;94640.44;5118086;27;20134;-70
2021/08/27 08:30:14;;;;;;;6.95;4.72;;;;;;;22.03;92.50;94631.09;5129086;27;20047;-71
2021/08/27 08:32:44;;;;;;;5.70;4.07;;;;;;;22.21;88.94;94632.69;5129037;27;20074;-71
2021/08/27 08:35:11;;;;;;;5.03;3.65;;;;;;;22.23;94.57;94625.19;5129659;27;20038;-70
2021/08/27 08:37:41;;;;;;;5.55;3.45;;;;;;;22.52;91.26;94626.53;5127530;27;20050;-71
2021/08/27 08:40:09;;;;;;;4.88;3.13;;;;;;;22.96;89.15;94629.97;5130457;27;20066;-71
2021/08/27 08:42:37;;;;;;;5.45;3.50;;;;;;;23.31;84.16;94639.78;5136395;27;20108;-71
2021/08/27 08:45:04;;;;;;;4.15;3.08;;;;;;;23.52;81.14;94613.31;5130577;27;20054;-71
2021/08/27 08:47:35;;;;;;;3.42;2.53;;;;;;;23.83;81.63;94621.03;5130188;27;20464;-71
2021/08/27 08:50:03;;;;;;;4.00;3.05;;;;;;;23.67;81.18;94618.84;5128984;27;20043;-71
2021/08/27 08:52:32;;;;;;;5.38;3.80;;;;;;;23.83;80.61;94613.81;5129443;27;20048;-71
2021/08/27 08:54:59;;;;;;;7.97;3.40;;;;;;;23.91;79.04;94608.78;5130846;27;20035;-71
2021/08/27 08:57:26;;;;;;;4.38;3.28;;;;;;;24.14;78.98;94604.72;5131436;27;20045;-71
2021/08/27 08:59:54;;;;;;;5.95;3.70;;;;;;;24.27;79.62;94610.13;5127435;27;20035;-68
2021/08/27 09:02:27;;;;;;;5.25;3.83;;;;;;;24.38;84.09;94601.47;5136672;27;20142;-68
2021/08/27 09:04:54;;;;;;;5.50;4.50;;;;;;;24.39;82.43;94612.88;5129621;27;20043;-68
2021/08/27 09:07:21;;;;;;;4.38;3.85;;;;;;;24.53;79.09;94608.13;5133867;27;20027;-68
2021/08/27 09:09:48;;;;;;;7.65;3.83;;;;;;;24.89;77.24;94609.38;5126851;27;20039;-69
2021/08/27 09:12:33;;;;;;;5.10;2.88;;;;;;;24.91;76.31;94617.06;5127146;27;20134;-68
2021/08/27 09:15:07;;;;;;;4.13;2.97;;;;;;;24.99;74.85;94619.66;5132837;27;20050;-69
2021/08/27 09:17:39;;;;;;;4.18;3.30;;;;;;;25.12;75.04;94627.66;5129594;27;20106;-68
2021/08/27 09:20:09;;;;;;;3.65;2.75;;;;;;;25.14;72.53;94625.47;5132220;27;20053;-69
2021/08/27 09:22:54;;;;;;;5.10;3.65;;;;;;;25.49;71.13;94622.47;5134147;27;20101;-69
2021/08/27 09:25:27;;;;;;;5.07;2.92;;;;;;;25.96;67.83;94621.31;5125909;27;20035;-69
2021/08/27 09:28:12;;;;;;;4.18;3.08;;;;;;;26.19;65.03;94616.31;5128299;27;20047;-68
2021/08/27 09:30:54;;;;;;;3.72;2.70;;;;;;;26.34;66.18;94615.59;5130232;27;20039;-69
2021/08/27 09:33:23;;;;;;;6.50;3.30;;;;;;;26.64;65.66;94620.69;5115637;27;20115;-69
2021/08/27 09:35:55;;;;;;;3.97;3.00;;;;;;;26.71;67.96;94612.88;5129371;27;20054;-68
2021/08/27 09:38:36;;;;;;;4.13;2.88;;;;;;;26.51;67.70;94607.34;5124738;27;20518;-70
2021/08/27 09:41:08;;;;;;;3.97;2.92;;;;;;;26.91;67.78;94610.38;5093641;28;20040;-70
2021/08/27 09:43:50;;;;;;;4.68;2.72;;;;;;;26.75;64.86;94604.97;5117317;27;20062;-69
2021/08/27 09:46:31;;;;;;;4.65;3.45;;;;;;;26.73;66.66;94615.22;5113696;27;20580;-70
2021/08/27 09:48:59;;;;;;;4.95;3.25;;;;;;;26.57;65.69;94597.19;5114632;27;20040;-69
2021/08/27 09:51:46;;;;;;;4.38;3.30;;;;;;;26.84;61.61;94590.34;5113236;27;20054;-69
2021/08/27 09:54:25;;;;;;;5.70;3.70;;;;;;;27.44;63.57;94597.63;5110940;27;20043;-69
2021/08/27 09:56:57;;;;;;;3.80;2.70;;;;;;;27.72;61.28;94588.75;5113585;27;20032;-69
2021/08/27 09:59:46;;;;;;;4.85;2.95;;;;;;;27.87;62.57;94585.28;5112149;27;20420;-69
2021/08/27 10:02:16;;;;;;;6.80;3.33;;;;;;;28.18;61.03;94589.84;5112792;27;20426;-69
2021/08/27 10:04:51;;;;;;;4.70;3.15;;;;;;;28.13;61.43;94575.97;5115160;27;20072;-69
2021/08/27 10:07:27;;;;;;;4.15;3.30;;;;;;;28.14;60.16;94575.59;5115219;27;20416;-70
2021/08/27 10:09:55;;;;;;;5.45;3.50;;;;;;;28.48;60.87;94569.81;5113958;27;20088;-70
2021/08/27 10:12:22;;;;;;;4.80;3.17;;;;;;;28.80;57.22;94586.56;5119326;27;20467;-69
2021/08/27 10:14:50;;;;;;;14.88;3.83;;;;;;;28.98;53.44;94565.44;5115490;27;20540;-69
2021/08/27 10:17:17;;;;;;;3.53;2.40;;;;;;;29.15;52.69;94565.03;5113093;27;20050;-70
2021/08/27 10:19:44;;;;;;;3.95;2.90;;;;;;;29.73;50.66;94560.63;5108537;27;20561;-70
2021/08/27 10:22:11;;;;;;;3.45;2.90;;;;;;;30.10;49.36;94562.69;5110762;27;20055;-70
2021/08/27 10:24:39;;;;;;;6.00;4.03;;;;;;;30.08;51.60;94559.59;5111775;27;20050;-70
2021/08/27 10:27:10;;;;;;;3.75;2.88;;;;;;;30.36;49.17;94569.19;5089965;27;20039;-70
2021/08/27 10:29:48;;;;;;;6.90;4.30;;;;;;;30.63;48.32;94570.72;5122407;27;20481;-70
2021/08/27 10:32:40;;;;;;;4.30;2.92;;;;;;;31.09;44.52;94560.88;5111031;27;20040;-70
2021/08/27 10:35:24;;;;;;;4.28;3.05;;;;;;;31.13;44.99;94567.06;5113756;27;20043;-71
2021/08/27 10:37:53;;;;;;;3.95;3.40;;;;;;;31.48;43.39;94568.53;5086086;27;20458;-70
2021/08/27 10:40:23;;;;;;;7.03;3.25;;;;;;;31.44;43.71;94566.59;5111742;27;20043;-70
2021/08/27 10:42:51;;;;;;;4.05;3.28;;;;;;;30.63;45.05;94562.66;5110869;27;20047;-71
2021/08/27 10:45:38;;;;;;;5.00;3.42;;;;;;;30.85;44.73;94576.34;5111509;27;20046;-70
2021/08/27 10:48:46;;;;;;;5.30;3.33;;;;;;;31.57;42.01;94574.41;5105306;27;20050;-71
2021/08/27 10:51:35;;;;;;;5.70;2.80;;;;;;;31.40;41.10;94565.78;5098149;27;20043;-71
2021/08/27 10:54:03;;;;;;;4.05;2.95;;;;;;;31.89;42.03;94568.47;5105127;27;20043;-71
2021/08/27 10:56:51;;;;;;;3.38;2.70;;;;;;;32.35;38.16;94557.25;5088782;28;20120;-70
2021/08/27 10:59:36;;;;;;;5.03;3.00;;;;;;;32.85;36.90;94556.72;5111657;27;20039;-70
2021/08/27 11:02:05;;;;;;;4.78;3.13;;;;;;;31.64;40.52;94558.31;5112218;27;20488;-69
2021/08/27 11:04:43;;;;;;;4.53;3.20;;;;;;;32.05;39.96;94542.06;5109229;27;20088;-70
2021/08/27 11:07:24;;;;;;;3.00;2.55;;;;;;;31.19;45.10;94544.06;5118494;27;20036;-69
2021/08/27 11:10:09;;;;;;;3.05;2.75;;;;;;;31.35;42.92;94541.13;5111222;27;20039;-70
2021/08/27 11:13:05;;;;;;;4.75;3.13;;;;;;;32.22;39.76;94537.19;5114324;27;20044;-70
2021/08/27 11:15:32;;;;;;;4.35;2.97;;;;;;;32.41;40.33;94539.56;5114868;27;20039;-70
2021/08/27 11:18:26;;;;;;;3.40;2.90;;;;;;;32.80;38.56;94544.38;5118135;27;20027;-70
2021/08/27 11:20:54;;;;;;;4.20;3.25;;;;;;;33.05;37.43;94538.28;5099806;27;20074;-70
2021/08/27 11:23:21;;;;;;;3.60;2.75;;;;;;;33.50;35.24;94530.63;5115557;27;20535;-70
2021/08/27 11:26:01;;;;;;;3.22;2.58;;;;;;;33.06;36.78;94540.59;5114290;27;20059;-70
2021/08/27 11:28:29;;;;;;;5.05;2.67;;;;;;;32.81;36.46;94540.53;5120960;27;20030;-69
2021/08/27 11:31:11;;;;;;;2.97;2.30;;;;;;;32.83;37.58;94543.63;5117810;27;20039;-69
2021/08/27 11:33:41;;;;;;;2.78;2.08;;;;;;;33.37;33.99;94542.94;5119629;27;20062;-69
2021/08/27 11:36:08;;;;;;;2.72;2.40;;;;;;;33.91;31.45;94543.75;5119879;27;20199;-69
2021/08/27 11:38:35;;;;;;;3.50;2.53;;;;;;;34.34;30.35;94543.69;5100307;27;20035;-69
2021/08/27 11:41:03;;;;;;;2.67;2.17;;;;;;;34.57;30.10;94545.13;5116703;27;20039;-68
2021/08/27 11:43:35;;;;;;;2.95;2.10;;;;;;;33.98;30.19;94541.03;5119285;27;20509;-68
2021/08/27 11:46:04;;;;;;;4.28;3.17;;;;;;;34.33;29.91;94534.03;5123248;27;20043;-70
2021/08/27 11:48:41;;;;;;;4.53;3.47;;;;;;;34.63;29.99;94538.16;5113928;27;20075;-70
2021/08/27 11:51:23;;;;;;;2.65;2.35;;;;;;;35.01;30.78;94549.22;5117724;27;20047;-69
2021/08/27 11:53:50;;;;;;;2.25;2.05;;;;;;;35.47;29.87;94550.84;5119251;27;20043;-69
2021/08/27 11:56:26;;;;;;;13.85;3.35;;;;;;;35.74;28.62;94536.75;5117176;27;20063;-69
2021/08/27 11:58:52;;;;;;;3.13;2.42;;;;;;;35.58;28.38;94548.84;5117134;27;20066;-69
2021/08/27 12:01:28;;;;;;;3.40;2.45;;;;;;;35.64;30.89;94542.97;5118355;27;20047;-69
2021/08/27 12:03:55;;;;;;;2.50;2.22;;;;;;;34.92;28.95;94540.75;5116336;27;20039;-68
2021/08/27 12:06:24;;;;;;;2.33;1.98;;;;;;;33.89;31.13;94540.66;5112942;27;20055;-69
2021/08/27 12:08:51;;;;;;;2.38;2.08;;;;;;;33.56;30.66;94534.47;5110705;27;20035;-69
2021/08/27 12:11:30;;;;;;;2.20;1.80;;;;;;;32.92;32.66;94548.66;5114089;27;20046;-67
2021/08/27 12:13:58;;;;;;;3.60;2.83;;;;;;;32.26;34.89;94549.50;5116021;27;20428;-67
2021/08/27 12:16:26;;;;;;;2.50;1.98;;;;;;;31.67;34.44;94557.56;5113080;27;20043;-67
2021/08/27 12:18:54;;;;;;;3.08;2.58;;;;;;;31.27;36.85;94545.66;5113073;28;20047;-67
2021/08/27 12:21:28;;;;;;;2.58;2.30;;;;;;;31.22;35.59;94554.06;5120660;27;20539;-67
2021/08/27 12:24:10;;;;;;;3.20;2.45;;;;;;;30.97;37.36;94543.88;5116810;27;20039;-67
2021/08/27 12:26:37;;;;;;;3.70;2.72;;;;;;;30.34;39.45;94547.31;5116965;28;20051;-68
2021/08/27 12:29:16;;;;;;;3.47;2.30;;;;;;;30.16;38.65;94550.53;5113415;28;20054;-68
2021/08/27 12:31:42;;;;;;;3.17;2.42;;;;;;;29.90;40.06;94549.38;5113332;28;20098;-67
2021/08/27 12:34:19;;;;;;;2.88;2.15;;;;;;;29.63;40.00;94545.13;5113685;28;20043;-67
2021/08/27 12:36:46;;;;;;;3.35;2.75;;;;;;;30.41;39.25;94547.41;5098066;28;20046;-67
2021/08/27 12:39:18;;;;;;;3.45;2.75;;;;;;;31.31;37.55;94551.09;5118098;28;20483;-67
2021/08/27 12:41:45;;;;;;;3.40;2.75;;;;;;;31.83;34.78;94533.81;5116434;28;20047;-68
2021/08/27 12:44:17;;;;;;;3.28;1.85;;;;;;;32.40;36.29;94548.81;5109077;28;20047;-68
2021/08/27 12:46:49;;;;;;;2.13;1.85;;;;;;;32.66;31.71;94538.94;5092249;28;20066;-69
2021/08/27 12:49:23;;;;;;;2.58;1.95;;;;;;;33.08;30.65;94548.28;5120910;28;20404;-68
2021/08/27 12:52:04;;;;;;;2.67;2.08;;;;;;;33.49;30.15;94546.06;5110101;28;20046;-68
2021/08/27 12:54:38;;;;;;;2.60;2.17;;;;;;;33.54;29.13;94526.00;5110754;28;20063;-68
2021/08/27 12:57:11;;;;;;;2.47;1.90;;;;;;;33.79;28.96;94536.03;5114946;28;20089;-69
2021/08/27 12:59:38;;;;;;;2.38;1.88;;;;;;;33.99;30.98;94542.56;5113926;28;20042;-68
2021/08/27 13:02:17;;;;;;;2.63;2.03;;;;;;;34.45;28.40;94538.25;5114665;28;20036;-67
2021/08/27 13:04:46;;;;;;;1.80;1.50;;;;;;;34.60;28.91;94538.94;5117092;28;20821;-68
2021/08/27 13:07:23;;;;;;;3.35;2.50;;;;;;;34.57;29.79;94529.66;5117271;28;20040;-68
2021/08/27 13:10:05;;;;;;;2.95;2.05;;;;;;;34.74;28.85;94532.75;5120603;28;20523;-69
2021/08/27 13:12:32;;;;;;;2.95;2.15;;;;;;;35.18;29.57;94540.19;5117522;28;20039;-67
2021/08/27 13:14:59;;;;;;;3.15;2.50;;;;;;;35.32;29.92;94530.47;5117073;27;20558;-67
2021/08/27 13:17:26;;;;;;;3.13;2.40;;;;;;;35.42;28.44;94526.94;5114882;27;20039;-67
2021/08/27 13:20:01;;;;;;;2.50;2.30;;;;;;;35.29;30.78;94523.16;5119066;27;20042;-68
2021/08/27 13:22:30;;;;;;;2.35;1.67;;;;;;;35.41;27.77;94525.38;5114794;27;20104;-68